Pacific Dawn — PBTM — position and weather

sailwx.info

Track history (hours):
 
Tides and Currents Weather Stations Pressure Air Temp Water Temp Dewpoint Dewpoint Depression Visibility Wind Speed Wind Dir Waves Ship Positions

Pacific Dawn

Last reported at 2018-Apr-10 21:34 UTC. Time now 2018-Apr-24 22:53 UTC.
Position N 27°47' W 015°21'.
Warning: this ship's position is 14 days out of date.

Length 105 m; draft 4.5 m.

Type: Ship. MMSI: 245118000.

Date/timePositionNaut miles runAvg speedWind from/ knotsBaromVisibWave heightAir tempDewpointWater temp
2018-Apr-10 21:34N 27°47' W 015°21'115.3
2018-Apr-10 21:29N 27°49' W 015°21'715.5
2018-Apr-10 21:01N 27°56' W 015°19'714.9
2018-Apr-10 20:31N 28°03' W 015°20'713.8
2018-Apr-10 20:00N 28°09' W 015°24'0 0.9
2018-Apr-10 19:30N 28°09' W 015°24'0 0.0
2018-Apr-10 19:00N 28°09' W 015°24'0 0.0
2018-Apr-10 18:29N 28°09' W 015°24'0 0.0
2018-Apr-10 17:59N 28°09' W 015°24'0 0.0
2018-Apr-10 17:30N 28°09' W 015°24'0 0.0
2018-Apr-10 17:00N 28°09' W 015°24'0 0.0
2018-Apr-10 16:30N 28°09' W 015°24'0 0.0
2018-Apr-10 15:58N 28°09' W 015°24'0 0.0
2018-Apr-10 15:30N 28°09' W 015°24'0 0.0
2018-Apr-10 15:00N 28°09' W 015°24'0 0.0
2018-Apr-10 14:29N 28°09' W 015°24'0 0.0
2018-Apr-10 14:00N 28°09' W 015°24'0 0.0
2018-Apr-10 13:28N 28°09' W 015°24'0 0.0
2018-Apr-10 13:00N 28°09' W 015°24'0 0.0
2018-Apr-10 12:30N 28°09' W 015°24'0 0.0
2018-Apr-10 12:00N 28°09' W 015°24'0 0.0
2018-Apr-10 11:30N 28°09' W 015°24'0 0.0
2018-Apr-10 10:59N 28°09' W 015°24'0 0.6
2018-Apr-10 10:30N 28°09' W 015°24'1 2.7
2018-Apr-10 09:59N 28°08' W 015°23'0 0.9
2018-Apr-10 09:30N 28°08' W 015°22'3 5.1
2018-Apr-10 09:00N 28°07' W 015°20'5 9.8
2018-Apr-10 08:30N 28°08' W 015°14'3 6.4
2018-Apr-10 08:00N 28°10' W 015°12'3 5.5
2018-Apr-10 07:30N 28°13' W 015°10'2 3.9
2018-Apr-10 07:00N 28°14' W 015°09'2 4.8
2018-Apr-10 06:30N 28°12' W 015°09'2 4.5
2018-Apr-10 06:00N 28°10' W 015°11'3 5.0
2018-Apr-10 05:30N 28°08' W 015°13'3 5.5
2018-Apr-10 05:00N 28°07' W 015°15'3 5.8
2018-Apr-10 04:30N 28°06' W 015°18'4 7.7
2018-Apr-10 04:00N 28°08' W 015°22'4 7.3
2018-Apr-10 03:30N 28°12' W 015°20'611.5
2018-Apr-10 03:00N 28°16' W 015°16'713.5
2018-Apr-10 02:30N 28°21' W 015°11'714.1
2018-Apr-10 02:00N 28°26' W 015°05'714.1
2018-Apr-10 01:29N 28°32' W 014°60'714.1
2018-Apr-10 01:00N 28°37' W 014°55'64714.2
2018-Apr-08 03:17N 35°58' W 005°35'412.9
2018-Apr-08 03:00N 35°59' W 005°31'612.1
2018-Apr-08 02:30N 36°00' W 005°23'611.4
2018-Apr-08 02:00N 36°02' W 005°17'45013.7
2018-Apr-06 17:08N 37°45' E 003°51'215.8
2018-Apr-06 17:00N 37°46' E 003°53'23715.8
2018-Apr-06 02:02N 38°49' E 008°44'115.6
2018-Apr-06 01:59N 38°49' E 008°45'815.9
2018-Apr-06 01:28N 38°51' E 008°55'815.8
2018-Apr-06 00:59N 38°54' E 009°04'715.5
2018-Apr-06 00:30N 38°56' E 009°13'815.3
2018-Apr-06 00:00N 38°59' E 009°22'814.9
2018-Apr-05 23:29N 39°01' E 009°32'  
Track history (hours):
 
Tides and Currents Weather Stations Pressure Air Temp Water Temp Dewpoint Dewpoint Depression Visibility Wind Speed Wind Dir Waves Ship Positions

Pacific Dawn

Last reported at 2018-Apr-10 21:34 UTC. Time now 2018-Apr-24 22:53 UTC.
Position N 27°47' W 015°21'.
Warning: this ship's position is 14 days out of date.

Length 105 m; draft 4.5 m.

Type: Ship. MMSI: 245118000.

Date/timePositionNaut miles runAvg speedWind from/ knotsBaromVisibWave heightAir tempDewpointWater temp
2018-Apr-10 21:34N 27°47' W 015°21'115.3
2018-Apr-10 21:29N 27°49' W 015°21'715.5
2018-Apr-10 21:01N 27°56' W 015°19'714.9
2018-Apr-10 20:31N 28°03' W 015°20'713.8
2018-Apr-10 20:00N 28°09' W 015°24'0 0.9
2018-Apr-10 19:30N 28°09' W 015°24'0 0.0
2018-Apr-10 19:00N 28°09' W 015°24'0 0.0
2018-Apr-10 18:29N 28°09' W 015°24'0 0.0
2018-Apr-10 17:59N 28°09' W 015°24'0 0.0
2018-Apr-10 17:30N 28°09' W 015°24'0 0.0
2018-Apr-10 17:00N 28°09' W 015°24'0 0.0
2018-Apr-10 16:30N 28°09' W 015°24'0 0.0
2018-Apr-10 15:58N 28°09' W 015°24'0 0.0
2018-Apr-10 15:30N 28°09' W 015°24'0 0.0
2018-Apr-10 15:00N 28°09' W 015°24'0 0.0
2018-Apr-10 14:29N 28°09' W 015°24'0 0.0
2018-Apr-10 14:00N 28°09' W 015°24'0 0.0
2018-Apr-10 13:28N 28°09' W 015°24'0 0.0
2018-Apr-10 13:00N 28°09' W 015°24'0 0.0
2018-Apr-10 12:30N 28°09' W 015°24'0 0.0
2018-Apr-10 12:00N 28°09' W 015°24'0 0.0
2018-Apr-10 11:30N 28°09' W 015°24'0 0.0
2018-Apr-10 10:59N 28°09' W 015°24'0 0.6
2018-Apr-10 10:30N 28°09' W 015°24'1 2.7
2018-Apr-10 09:59N 28°08' W 015°23'0 0.9
2018-Apr-10 09:30N 28°08' W 015°22'3 5.1
2018-Apr-10 09:00N 28°07' W 015°20'5 9.8
2018-Apr-10 08:30N 28°08' W 015°14'3 6.4
2018-Apr-10 08:00N 28°10' W 015°12'3 5.5
2018-Apr-10 07:30N 28°13' W 015°10'2 3.9
2018-Apr-10 07:00N 28°14' W 015°09'2 4.8
2018-Apr-10 06:30N 28°12' W 015°09'2 4.5
2018-Apr-10 06:00N 28°10' W 015°11'3 5.0
2018-Apr-10 05:30N 28°08' W 015°13'3 5.5
2018-Apr-10 05:00N 28°07' W 015°15'3 5.8
2018-Apr-10 04:30N 28°06' W 015°18'4 7.7
2018-Apr-10 04:00N 28°08' W 015°22'4 7.3
2018-Apr-10 03:30N 28°12' W 015°20'611.5
2018-Apr-10 03:00N 28°16' W 015°16'713.5
2018-Apr-10 02:30N 28°21' W 015°11'714.1
2018-Apr-10 02:00N 28°26' W 015°05'714.1
2018-Apr-10 01:29N 28°32' W 014°60'714.1
2018-Apr-10 01:00N 28°37' W 014°55'64714.2
2018-Apr-08 03:17N 35°58' W 005°35'412.9
2018-Apr-08 03:00N 35°59' W 005°31'612.1
2018-Apr-08 02:30N 36°00' W 005°23'611.4
2018-Apr-08 02:00N 36°02' W 005°17'45013.7
2018-Apr-06 17:08N 37°45' E 003°51'215.8
2018-Apr-06 17:00N 37°46' E 003°53'23715.8
2018-Apr-06 02:02N 38°49' E 008°44'115.6
2018-Apr-06 01:59N 38°49' E 008°45'815.9
2018-Apr-06 01:28N 38°51' E 008°55'815.8
2018-Apr-06 00:59N 38°54' E 009°04'715.5
2018-Apr-06 00:30N 38°56' E 009°13'815.3
2018-Apr-06 00:00N 38°59' E 009°22'814.9
2018-Apr-05 23:29N 39°01' E 009°32'  

Dump ship's entire track history